sensor_id;sensor_type;location;lat;lon;timestamp;temperature;humidity
5334;DHT22;2689;50.954;7.116;2023-08-24T00:00:17;18.90;99.90
5334;DHT22;2689;50.954;7.116;2023-08-24T00:02:44;18.80;99.90
5334;DHT22;2689;50.954;7.116;2023-08-24T00:05:12;18.60;99.90
5334;DHT22;2689;50.954;7.116;2023-08-24T00:07:39;18.40;99.90
5334;DHT22;2689;50.954;7.116;2023-08-24T00:10:08;18.60;99.90
5334;DHT22;2689;50.954;7.116;2023-08-24T00:12:35;18.50;99.90
5334;DHT22;2689;50.954;7.116;2023-08-24T00:15:02;18.50;99.90
5334;DHT22;2689;50.954;7.116;2023-08-24T00:17:29;18.50;99.90
5334;DHT22;2689;50.954;7.116;2023-08-24T00:19:56;18.50;99.90
5334;DHT22;2689;50.954;7.116;2023-08-24T00:22:23;18.40;99.90
5334;DHT22;2689;50.954;7.116;2023-08-24T00:24:50;18.30;99.90
5334;DHT22;2689;50.954;7.116;2023-08-24T00:27:18;18.30;99.90
5334;DHT22;2689;50.954;7.116;2023-08-24T00:29:45;18.20;99.90
5334;DHT22;2689;50.954;7.116;2023-08-24T00:32:14;18.20;99.90
5334;DHT22;2689;50.954;7.116;2023-08-24T00:34:40;18.20;99.90
5334;DHT22;2689;50.954;7.116;2023-08-24T00:37:07;18.10;99.90
5334;DHT22;2689;50.954;7.116;2023-08-24T00:39:34;18.10;99.90
5334;DHT22;2689;50.954;7.116;2023-08-24T00:42:03;18.00;99.90
5334;DHT22;2689;50.954;7.116;2023-08-24T00:44:32;18.00;99.90
5334;DHT22;2689;50.954;7.116;2023-08-24T00:46:59;18.00;99.90
5334;DHT22;2689;50.954;7.116;2023-08-24T00:49:26;18.00;99.90
5334;DHT22;2689;50.954;7.116;2023-08-24T00:51:53;18.00;99.90
5334;DHT22;2689;50.954;7.116;2023-08-24T00:54:20;17.90;99.90
5334;DHT22;2689;50.954;7.116;2023-08-24T00:56:47;17.90;99.90
5334;DHT22;2689;50.954;7.116;2023-08-24T00:59:13;17.90;99.90
5334;DHT22;2689;50.954;7.116;2023-08-24T01:01:44;17.90;99.90
5334;DHT22;2689;50.954;7.116;2023-08-24T01:04:11;17.90;99.90
5334;DHT22;2689;50.954;7.116;2023-08-24T01:06:38;17.90;99.90
5334;DHT22;2689;50.954;7.116;2023-08-24T01:09:06;17.80;99.90
5334;DHT22;2689;50.954;7.116;2023-08-24T01:11:52;17.90;99.90
5334;DHT22;2689;50.954;7.116;2023-08-24T01:14:30;17.80;99.90
5334;DHT22;2689;50.954;7.116;2023-08-24T01:17:09;17.80;99.90
5334;DHT22;2689;50.954;7.116;2023-08-24T01:19:39;17.80;99.90
5334;DHT22;2689;50.954;7.116;2023-08-24T01:22:18;17.80;99.90
5334;DHT22;2689;50.954;7.116;2023-08-24T01:24:51;17.80;99.90
5334;DHT22;2689;50.954;7.116;2023-08-24T01:27:21;17.80;99.90
5334;DHT22;2689;50.954;7.116;2023-08-24T01:29:48;17.80;99.90
5334;DHT22;2689;50.954;7.116;2023-08-24T01:32:18;17.70;99.90
5334;DHT22;2689;50.954;7.116;2023-08-24T01:34:44;17.60;99.90
5334;DHT22;2689;50.954;7.116;2023-08-24T01:37:11;17.60;99.90
5334;DHT22;2689;50.954;7.116;2023-08-24T01:39:43;17.60;99.90
5334;DHT22;2689;50.954;7.116;2023-08-24T01:42:20;17.50;99.90
5334;DHT22;2689;50.954;7.116;2023-08-24T01:44:52;17.50;99.90
5334;DHT22;2689;50.954;7.116;2023-08-24T01:47:19;17.50;99.90
5334;DHT22;2689;50.954;7.116;2023-08-24T01:49:47;17.50;99.90
5334;DHT22;2689;50.954;7.116;2023-08-24T01:52:15;17.50;99.90
5334;DHT22;2689;50.954;7.116;2023-08-24T01:54:43;17.40;99.90
5334;DHT22;2689;50.954;7.116;2023-08-24T01:57:12;17.40;99.90
5334;DHT22;2689;50.954;7.116;2023-08-24T01:59:38;17.50;99.90
5334;DHT22;2689;50.954;7.116;2023-08-24T02:02:07;17.50;99.90
5334;DHT22;2689;50.954;7.116;2023-08-24T02:04:35;17.50;99.90
5334;DHT22;2689;50.954;7.116;2023-08-24T02:07:01;17.40;99.90
5334;DHT22;2689;50.954;7.116;2023-08-24T02:09:28;17.40;99.90
5334;DHT22;2689;50.954;7.116;2023-08-24T02:11:55;17.50;99.90
5334;DHT22;2689;50.954;7.116;2023-08-24T02:14:22;17.50;99.90
5334;DHT22;2689;50.954;7.116;2023-08-24T02:16:49;17.50;99.90
5334;DHT22;2689;50.954;7.116;2023-08-24T02:19:17;17.50;99.90
5334;DHT22;2689;50.954;7.116;2023-08-24T02:21:44;17.60;99.90
5334;DHT22;2689;50.954;7.116;2023-08-24T02:24:10;17.70;99.90
5334;DHT22;2689;50.954;7.116;2023-08-24T02:26:37;17.70;99.90
5334;DHT22;2689;50.954;7.116;2023-08-24T02:29:04;17.70;99.90
5334;DHT22;2689;50.954;7.116;2023-08-24T02:31:31;17.70;99.90
5334;DHT22;2689;50.954;7.116;2023-08-24T02:33:58;17.80;99.90
5334;DHT22;2689;50.954;7.116;2023-08-24T02:36:26;17.80;99.90
5334;DHT22;2689;50.954;7.116;2023-08-24T02:38:54;17.80;99.90
5334;DHT22;2689;50.954;7.116;2023-08-24T02:41:22;17.90;99.90
5334;DHT22;2689;50.954;7.116;2023-08-24T02:43:48;17.90;99.90
5334;DHT22;2689;50.954;7.116;2023-08-24T02:46:15;17.90;99.90
5334;DHT22;2689;50.954;7.116;2023-08-24T02:48:44;17.90;99.90
5334;DHT22;2689;50.954;7.116;2023-08-24T02:51:11;17.90;99.90
5334;DHT22;2689;50.954;7.116;2023-08-24T02:53:39;17.90;99.90
5334;DHT22;2689;50.954;7.116;2023-08-24T02:56:06;17.90;99.90
5334;DHT22;2689;50.954;7.116;2023-08-24T02:58:33;18.00;99.90
5334;DHT22;2689;50.954;7.116;2023-08-24T03:01:04;18.10;99.90
5334;DHT22;2689;50.954;7.116;2023-08-24T03:03:31;18.10;99.90
5334;DHT22;2689;50.954;7.116;2023-08-24T03:06:00;18.20;99.90
5334;DHT22;2689;50.954;7.116;2023-08-24T03:08:27;18.20;99.90
5334;DHT22;2689;50.954;7.116;2023-08-24T03:10:56;18.20;99.90
5334;DHT22;2689;50.954;7.116;2023-08-24T03:13:23;18.30;99.90
5334;DHT22;2689;50.954;7.116;2023-08-24T03:15:50;18.30;99.90
5334;DHT22;2689;50.954;7.116;2023-08-24T03:18:17;18.40;99.90
5334;DHT22;2689;50.954;7.116;2023-08-24T03:20:45;18.30;99.90
5334;DHT22;2689;50.954;7.116;2023-08-24T03:23:12;18.40;99.90
5334;DHT22;2689;50.954;7.116;2023-08-24T03:25:42;18.40;99.90
5334;DHT22;2689;50.954;7.116;2023-08-24T03:28:10;18.40;99.90
5334;DHT22;2689;50.954;7.116;2023-08-24T03:30:38;18.60;99.90
5334;DHT22;2689;50.954;7.116;2023-08-24T03:33:05;18.50;99.90
5334;DHT22;2689;50.954;7.116;2023-08-24T03:35:33;18.50;99.90
5334;DHT22;2689;50.954;7.116;2023-08-24T03:38:00;18.60;99.90
5334;DHT22;2689;50.954;7.116;2023-08-24T03:40:27;18.60;99.90
5334;DHT22;2689;50.954;7.116;2023-08-24T03:42:53;18.60;99.90
5334;DHT22;2689;50.954;7.116;2023-08-24T03:45:22;18.60;99.90
5334;DHT22;2689;50.954;7.116;2023-08-24T03:47:49;18.70;99.90
5334;DHT22;2689;50.954;7.116;2023-08-24T03:50:17;18.80;99.90
5334;DHT22;2689;50.954;7.116;2023-08-24T03:52:44;18.80;99.90
5334;DHT22;2689;50.954;7.116;2023-08-24T03:55:11;18.80;99.90
5334;DHT22;2689;50.954;7.116;2023-08-24T03:57:39;18.80;99.90
5334;DHT22;2689;50.954;7.116;2023-08-24T04:00:08;18.80;99.90
5334;DHT22;2689;50.954;7.116;2023-08-24T04:02:39;18.80;99.90
5334;DHT22;2689;50.954;7.116;2023-08-24T04:05:06;18.80;99.90
5334;DHT22;2689;50.954;7.116;2023-08-24T04:07:36;18.70;99.90
5334;DHT22;2689;50.954;7.116;2023-08-24T04:10:05;18.70;99.90
5334;DHT22;2689;50.954;7.116;2023-08-24T04:12:32;18.70;99.90
5334;DHT22;2689;50.954;7.116;2023-08-24T04:14:59;18.60;99.90
5334;DHT22;2689;50.954;7.116;2023-08-24T04:17:26;18.70;99.90
5334;DHT22;2689;50.954;7.116;2023-08-24T04:19:54;18.60;99.90
5334;DHT22;2689;50.954;7.116;2023-08-24T04:22:21;18.60;99.90
5334;DHT22;2689;50.954;7.116;2023-08-24T04:24:47;18.60;99.90
5334;DHT22;2689;50.954;7.116;2023-08-24T04:27:14;18.60;99.90
5334;DHT22;2689;50.954;7.116;2023-08-24T04:29:41;18.60;99.90
5334;DHT22;2689;50.954;7.116;2023-08-24T04:32:14;18.60;99.90
5334;DHT22;2689;50.954;7.116;2023-08-24T04:34:41;18.70;99.90
5334;DHT22;2689;50.954;7.116;2023-08-24T04:37:09;18.70;99.90
5334;DHT22;2689;50.954;7.116;2023-08-24T04:39:36;18.60;99.90
5334;DHT22;2689;50.954;7.116;2023-08-24T04:42:06;18.60;99.90
5334;DHT22;2689;50.954;7.116;2023-08-24T04:44:32;18.60;99.90
5334;DHT22;2689;50.954;7.116;2023-08-24T04:46:59;18.60;99.90
5334;DHT22;2689;50.954;7.116;2023-08-24T04:49:26;18.60;99.90
5334;DHT22;2689;50.954;7.116;2023-08-24T04:51:54;18.70;99.90
5334;DHT22;2689;50.954;7.116;2023-08-24T04:54:22;18.60;99.90
5334;DHT22;2689;50.954;7.116;2023-08-24T04:56:48;18.60;99.90
5334;DHT22;2689;50.954;7.116;2023-08-24T04:59:15;18.60;99.90
5334;DHT22;2689;50.954;7.116;2023-08-24T05:01:42;18.60;99.90
5334;DHT22;2689;50.954;7.116;2023-08-24T05:04:11;18.60;99.90
5334;DHT22;2689;50.954;7.116;2023-08-24T05:06:38;18.60;99.90
5334;DHT22;2689;50.954;7.116;2023-08-24T05:09:05;18.70;99.90
5334;DHT22;2689;50.954;7.116;2023-08-24T05:11:36;18.60;99.90
5334;DHT22;2689;50.954;7.116;2023-08-24T05:14:03;18.70;99.90
5334;DHT22;2689;50.954;7.116;2023-08-24T05:16:30;18.60;99.90
5334;DHT22;2689;50.954;7.116;2023-08-24T05:18:56;18.60;99.90
5334;DHT22;2689;50.954;7.116;2023-08-24T05:21:23;18.50;99.90
5334;DHT22;2689;50.954;7.116;2023-08-24T05:23:50;18.40;99.90
5334;DHT22;2689;50.954;7.116;2023-08-24T05:26:17;18.20;99.90
5334;DHT22;2689;50.954;7.116;2023-08-24T05:28:56;18.30;99.90
5334;DHT22;2689;50.954;7.116;2023-08-24T05:31:23;18.30;99.90
5334;DHT22;2689;50.954;7.116;2023-08-24T05:33:50;18.40;99.90
5334;DHT22;2689;50.954;7.116;2023-08-24T05:36:17;18.50;99.90
5334;DHT22;2689;50.954;7.116;2023-08-24T05:38:44;18.50;99.90
5334;DHT22;2689;50.954;7.116;2023-08-24T05:41:12;18.50;99.90
5334;DHT22;2689;50.954;7.116;2023-08-24T05:43:39;18.40;99.90
5334;DHT22;2689;50.954;7.116;2023-08-24T05:46:08;18.40;99.90
5334;DHT22;2689;50.954;7.116;2023-08-24T05:48:34;18.40;99.90
5334;DHT22;2689;50.954;7.116;2023-08-24T05:51:01;18.50;99.90
5334;DHT22;2689;50.954;7.116;2023-08-24T05:53:28;18.60;99.90
5334;DHT22;2689;50.954;7.116;2023-08-24T05:55:57;18.60;99.90
5334;DHT22;2689;50.954;7.116;2023-08-24T05:58:25;18.70;99.90
5334;DHT22;2689;50.954;7.116;2023-08-24T06:00:57;18.70;99.90
5334;DHT22;2689;50.954;7.116;2023-08-24T06:03:25;18.70;99.90
5334;DHT22;2689;50.954;7.116;2023-08-24T06:06:02;18.80;99.90
5334;DHT22;2689;50.954;7.116;2023-08-24T06:08:29;18.80;99.90
5334;DHT22;2689;50.954;7.116;2023-08-24T06:10:57;18.80;99.90
5334;DHT22;2689;50.954;7.116;2023-08-24T06:13:24;18.90;99.90
5334;DHT22;2689;50.954;7.116;2023-08-24T06:15:50;18.90;99.90
5334;DHT22;2689;50.954;7.116;2023-08-24T06:18:17;18.80;99.90
5334;DHT22;2689;50.954;7.116;2023-08-24T06:20:45;18.90;99.90
5334;DHT22;2689;50.954;7.116;2023-08-24T06:23:14;18.90;99.90
5334;DHT22;2689;50.954;7.116;2023-08-24T06:25:41;18.90;99.90
5334;DHT22;2689;50.954;7.116;2023-08-24T06:28:08;18.90;99.90
5334;DHT22;2689;50.954;7.116;2023-08-24T06:30:37;18.90;99.90
5334;DHT22;2689;50.954;7.116;2023-08-24T06:33:05;18.90;99.90
5334;DHT22;2689;50.954;7.116;2023-08-24T06:35:32;19.00;99.90
5334;DHT22;2689;50.954;7.116;2023-08-24T06:38:00;19.10;99.90
5334;DHT22;2689;50.954;7.116;2023-08-24T06:40:27;19.20;99.90
5334;DHT22;2689;50.954;7.116;2023-08-24T06:42:54;19.40;99.90
5334;DHT22;2689;50.954;7.116;2023-08-24T06:45:21;19.60;99.90
5334;DHT22;2689;50.954;7.116;2023-08-24T06:47:47;19.80;99.90
5334;DHT22;2689;50.954;7.116;2023-08-24T06:50:14;20.10;99.90
5334;DHT22;2689;50.954;7.116;2023-08-24T06:52:42;20.30;99.90
5334;DHT22;2689;50.954;7.116;2023-08-24T06:55:10;20.50;99.90
5334;DHT22;2689;50.954;7.116;2023-08-24T06:57:37;20.70;99.90
5334;DHT22;2689;50.954;7.116;2023-08-24T07:00:05;20.90;99.90
5334;DHT22;2689;50.954;7.116;2023-08-24T07:02:34;21.20;99.90
5334;DHT22;2689;50.954;7.116;2023-08-24T07:05:01;21.30;99.90
5334;DHT22;2689;50.954;7.116;2023-08-24T07:07:30;21.50;99.90
5334;DHT22;2689;50.954;7.116;2023-08-24T07:09:57;21.70;99.90
5334;DHT22;2689;50.954;7.116;2023-08-24T07:12:25;21.90;99.90
5334;DHT22;2689;50.954;7.116;2023-08-24T07:14:51;22.00;99.90
5334;DHT22;2689;50.954;7.116;2023-08-24T07:17:19;22.10;99.90
5334;DHT22;2689;50.954;7.116;2023-08-24T07:19:45;22.20;99.90
5334;DHT22;2689;50.954;7.116;2023-08-24T07:22:12;22.30;99.90
5334;DHT22;2689;50.954;7.116;2023-08-24T07:24:39;22.60;99.90
5334;DHT22;2689;50.954;7.116;2023-08-24T07:27:07;22.70;98.90
5334;DHT22;2689;50.954;7.116;2023-08-24T07:29:35;23.00;99.60
5334;DHT22;2689;50.954;7.116;2023-08-24T07:32:02;23.20;99.60
5334;DHT22;2689;50.954;7.116;2023-08-24T07:34:29;23.40;97.50
5334;DHT22;2689;50.954;7.116;2023-08-24T07:36:56;23.70;97.50
5334;DHT22;2689;50.954;7.116;2023-08-24T07:39:23;24.00;96.00
5334;DHT22;2689;50.954;7.116;2023-08-24T07:41:49;24.30;94.70
5334;DHT22;2689;50.954;7.116;2023-08-24T07:44:16;24.90;94.30
5334;DHT22;2689;50.954;7.116;2023-08-24T07:46:45;25.60;93.90
5334;DHT22;2689;50.954;7.116;2023-08-24T07:49:11;26.30;91.10
5334;DHT22;2689;50.954;7.116;2023-08-24T07:51:38;26.90;88.60
5334;DHT22;2689;50.954;7.116;2023-08-24T07:54:05;27.40;86.20
5334;DHT22;2689;50.954;7.116;2023-08-24T07:56:33;28.30;83.10
5334;DHT22;2689;50.954;7.116;2023-08-24T07:59:00;29.20;77.70
5334;DHT22;2689;50.954;7.116;2023-08-24T08:01:26;29.60;77.10
5334;DHT22;2689;50.954;7.116;2023-08-24T08:03:54;29.90;72.20
5334;DHT22;2689;50.954;7.116;2023-08-24T08:06:21;29.70;71.80
5334;DHT22;2689;50.954;7.116;2023-08-24T08:08:50;30.10;72.00
5334;DHT22;2689;50.954;7.116;2023-08-24T08:11:17;31.10;71.70
5334;DHT22;2689;50.954;7.116;2023-08-24T08:13:44;31.40;66.40
5334;DHT22;2689;50.954;7.116;2023-08-24T08:16:11;32.00;64.80
5334;DHT22;2689;50.954;7.116;2023-08-24T08:18:38;32.20;63.80
5334;DHT22;2689;50.954;7.116;2023-08-24T08:21:10;32.10;62.60
5334;DHT22;2689;50.954;7.116;2023-08-24T08:23:37;33.50;62.80
5334;DHT22;2689;50.954;7.116;2023-08-24T08:26:04;34.80;58.60
5334;DHT22;2689;50.954;7.116;2023-08-24T08:28:31;35.60;57.50
5334;DHT22;2689;50.954;7.116;2023-08-24T08:30:59;35.10;54.40
5334;DHT22;2689;50.954;7.116;2023-08-24T08:33:25;34.60;56.40
5334;DHT22;2689;50.954;7.116;2023-08-24T08:35:52;34.70;55.70
5334;DHT22;2689;50.954;7.116;2023-08-24T08:38:20;33.20;57.10
5334;DHT22;2689;50.954;7.116;2023-08-24T08:40:51;33.00;58.50
5334;DHT22;2689;50.954;7.116;2023-08-24T08:43:21;33.10;58.80
5334;DHT22;2689;50.954;7.116;2023-08-24T08:45:49;34.00;58.90
5334;DHT22;2689;50.954;7.116;2023-08-24T08:48:16;35.10;56.00
5334;DHT22;2689;50.954;7.116;2023-08-24T08:50:43;35.10;53.90
5334;DHT22;2689;50.954;7.116;2023-08-24T08:53:10;35.50;54.90
5334;DHT22;2689;50.954;7.116;2023-08-24T08:55:38;35.70;53.50
5334;DHT22;2689;50.954;7.116;2023-08-24T08:58:05;36.60;52.80
5334;DHT22;2689;50.954;7.116;2023-08-24T09:00:33;37.30;50.80
5334;DHT22;2689;50.954;7.116;2023-08-24T09:03:00;38.00;49.10
5334;DHT22;2689;50.954;7.116;2023-08-24T09:05:28;38.20;48.20
5334;DHT22;2689;50.954;7.116;2023-08-24T09:07:56;38.20;46.80
5334;DHT22;2689;50.954;7.116;2023-08-24T09:10:25;37.60;47.20
5334;DHT22;2689;50.954;7.116;2023-08-24T09:12:53;37.50;47.90
5334;DHT22;2689;50.954;7.116;2023-08-24T09:15:26;38.30;46.90
5334;DHT22;2689;50.954;7.116;2023-08-24T09:17:54;38.60;45.70
5334;DHT22;2689;50.954;7.116;2023-08-24T09:20:22;38.70;44.10
5334;DHT22;2689;50.954;7.116;2023-08-24T09:22:48;39.20;44.00
5334;DHT22;2689;50.954;7.116;2023-08-24T09:25:16;39.60;43.20
5334;DHT22;2689;50.954;7.116;2023-08-24T09:27:43;39.00;42.20
5334;DHT22;2689;50.954;7.116;2023-08-24T09:30:11;39.90;42.70
5334;DHT22;2689;50.954;7.116;2023-08-24T09:32:38;40.70;41.00
5334;DHT22;2689;50.954;7.116;2023-08-24T09:35:08;41.10;40.70
5334;DHT22;2689;50.954;7.116;2023-08-24T09:37:36;40.80;40.10
5334;DHT22;2689;50.954;7.116;2023-08-24T09:40:05;40.90;40.00
5334;DHT22;2689;50.954;7.116;2023-08-24T09:42:37;40.00;40.10
5334;DHT22;2689;50.954;7.116;2023-08-24T09:45:06;39.60;40.90
5334;DHT22;2689;50.954;7.116;2023-08-24T09:47:36;39.00;40.40
5334;DHT22;2689;50.954;7.116;2023-08-24T09:50:04;37.90;41.90
5334;DHT22;2689;50.954;7.116;2023-08-24T09:52:32;36.90;45.00
5334;DHT22;2689;50.954;7.116;2023-08-24T09:55:03;36.70;45.70
5334;DHT22;2689;50.954;7.116;2023-08-24T09:57:33;36.90;45.30
5334;DHT22;2689;50.954;7.116;2023-08-24T10:00:03;36.70;45.20
5334;DHT22;2689;50.954;7.116;2023-08-24T10:02:37;36.00;46.80
5334;DHT22;2689;50.954;7.116;2023-08-24T10:05:08;36.00;48.30
5334;DHT22;2689;50.954;7.116;2023-08-24T10:07:37;35.80;48.10
5334;DHT22;2689;50.954;7.116;2023-08-24T10:10:07;35.60;47.90
5334;DHT22;2689;50.954;7.116;2023-08-24T10:12:44;35.30;48.70
5334;DHT22;2689;50.954;7.116;2023-08-24T10:15:11;34.80;48.60
5334;DHT22;2689;50.954;7.116;2023-08-24T10:17:40;34.70;49.70
5334;DHT22;2689;50.954;7.116;2023-08-24T10:20:07;34.50;49.30
5334;DHT22;2689;50.954;7.116;2023-08-24T10:22:37;34.10;49.60
5334;DHT22;2689;50.954;7.116;2023-08-24T10:25:07;33.80;51.60
5334;DHT22;2689;50.954;7.116;2023-08-24T10:27:34;33.50;52.10
5334;DHT22;2689;50.954;7.116;2023-08-24T10:30:01;33.00;52.70
5334;DHT22;2689;50.954;7.116;2023-08-24T10:32:28;32.80;54.70
5334;DHT22;2689;50.954;7.116;2023-08-24T10:34:57;32.70;55.00
5334;DHT22;2689;50.954;7.116;2023-08-24T10:37:27;32.70;54.10
5334;DHT22;2689;50.954;7.116;2023-08-24T10:39:54;32.30;55.00
5334;DHT22;2689;50.954;7.116;2023-08-24T10:42:21;32.10;56.30
5334;DHT22;2689;50.954;7.116;2023-08-24T10:44:48;32.10;57.00
5334;DHT22;2689;50.954;7.116;2023-08-24T10:47:17;32.10;56.60
5334;DHT22;2689;50.954;7.116;2023-08-24T10:49:45;32.20;57.80
5334;DHT22;2689;50.954;7.116;2023-08-24T10:52:25;32.20;57.50
5334;DHT22;2689;50.954;7.116;2023-08-24T10:54:53;32.20;57.70
5334;DHT22;2689;50.954;7.116;2023-08-24T10:57:22;32.10;57.40
5334;DHT22;2689;50.954;7.116;2023-08-24T10:59:59;32.10;57.80
5334;DHT22;2689;50.954;7.116;2023-08-24T11:02:26;31.90;57.50
5334;DHT22;2689;50.954;7.116;2023-08-24T11:05:06;31.90;58.20
5334;DHT22;2689;50.954;7.116;2023-08-24T11:07:48;31.90;57.30
5334;DHT22;2689;50.954;7.116;2023-08-24T11:10:15;31.50;55.40
5334;DHT22;2689;50.954;7.116;2023-08-24T11:13:05;31.20;56.50
5334;DHT22;2689;50.954;7.116;2023-08-24T11:15:33;31.30;55.40
5334;DHT22;2689;50.954;7.116;2023-08-24T11:18:20;31.30;54.70
5334;DHT22;2689;50.954;7.116;2023-08-24T11:20:48;31.40;54.10
5334;DHT22;2689;50.954;7.116;2023-08-24T11:23:18;30.90;54.40
5334;DHT22;2689;50.954;7.116;2023-08-24T11:25:45;31.10;56.00
5334;DHT22;2689;50.954;7.116;2023-08-24T11:28:17;31.10;54.60
5334;DHT22;2689;50.954;7.116;2023-08-24T11:30:44;31.30;55.10
5334;DHT22;2689;50.954;7.116;2023-08-24T11:33:11;31.20;53.90
5334;DHT22;2689;50.954;7.116;2023-08-24T11:35:40;31.00;54.90
5334;DHT22;2689;50.954;7.116;2023-08-24T11:38:07;30.70;55.50
5334;DHT22;2689;50.954;7.116;2023-08-24T11:40:35;30.40;56.30
5334;DHT22;2689;50.954;7.116;2023-08-24T11:43:03;30.00;57.20
5334;DHT22;2689;50.954;7.116;2023-08-24T11:45:31;29.80;58.40
5334;DHT22;2689;50.954;7.116;2023-08-24T11:47:58;29.70;58.40
5334;DHT22;2689;50.954;7.116;2023-08-24T11:50:26;29.50;58.40
5334;DHT22;2689;50.954;7.116;2023-08-24T11:52:53;29.30;59.00
5334;DHT22;2689;50.954;7.116;2023-08-24T11:55:21;29.20;59.60
5334;DHT22;2689;50.954;7.116;2023-08-24T11:57:49;29.10;60.40
5334;DHT22;2689;50.954;7.116;2023-08-24T12:00:18;28.90;61.10
5334;DHT22;2689;50.954;7.116;2023-08-24T12:02:46;28.90;61.80
5334;DHT22;2689;50.954;7.116;2023-08-24T12:05:21;28.70;61.80
5334;DHT22;2689;50.954;7.116;2023-08-24T12:07:48;28.70;62.50
5334;DHT22;2689;50.954;7.116;2023-08-24T12:10:15;28.60;63.40
5334;DHT22;2689;50.954;7.116;2023-08-24T12:12:42;28.60;63.30
5334;DHT22;2689;50.954;7.116;2023-08-24T12:15:17;28.70;64.10
5334;DHT22;2689;50.954;7.116;2023-08-24T12:17:46;28.80;63.90
5334;DHT22;2689;50.954;7.116;2023-08-24T12:20:18;29.00;63.90
5334;DHT22;2689;50.954;7.116;2023-08-24T12:22:51;29.10;64.00
5334;DHT22;2689;50.954;7.116;2023-08-24T12:25:18;29.10;64.00
5334;DHT22;2689;50.954;7.116;2023-08-24T12:27:48;29.00;64.40
5334;DHT22;2689;50.954;7.116;2023-08-24T12:30:16;29.00;64.90
5334;DHT22;2689;50.954;7.116;2023-08-24T12:32:48;28.80;65.10
5334;DHT22;2689;50.954;7.116;2023-08-24T12:35:17;28.70;66.00
5334;DHT22;2689;50.954;7.116;2023-08-24T12:37:44;28.50;65.80
5334;DHT22;2689;50.954;7.116;2023-08-24T12:40:12;28.40;67.00
5334;DHT22;2689;50.954;7.116;2023-08-24T12:42:39;28.20;67.20
5334;DHT22;2689;50.954;7.116;2023-08-24T12:45:07;28.00;68.10
5334;DHT22;2689;50.954;7.116;2023-08-24T12:47:35;27.90;69.30
5334;DHT22;2689;50.954;7.116;2023-08-24T12:50:07;27.70;70.30
5334;DHT22;2689;50.954;7.116;2023-08-24T12:52:34;27.40;72.60
5334;DHT22;2689;50.954;7.116;2023-08-24T12:55:01;27.30;74.00
5334;DHT22;2689;50.954;7.116;2023-08-24T12:57:28;27.10;74.30
5334;DHT22;2689;50.954;7.116;2023-08-24T12:59:55;26.90;75.60
5334;DHT22;2689;50.954;7.116;2023-08-24T13:02:22;26.70;77.20
5334;DHT22;2689;50.954;7.116;2023-08-24T13:04:50;26.60;78.00
5334;DHT22;2689;50.954;7.116;2023-08-24T13:07:17;26.50;78.70
5334;DHT22;2689;50.954;7.116;2023-08-24T13:09:43;26.30;79.10
5334;DHT22;2689;50.954;7.116;2023-08-24T13:12:10;26.30;80.90
5334;DHT22;2689;50.954;7.116;2023-08-24T13:14:37;26.00;82.70
5334;DHT22;2689;50.954;7.116;2023-08-24T13:17:04;26.00;85.10
5334;DHT22;2689;50.954;7.116;2023-08-24T13:19:30;25.80;86.50
5334;DHT22;2689;50.954;7.116;2023-08-24T13:21:58;25.70;88.10
5334;DHT22;2689;50.954;7.116;2023-08-24T13:24:25;25.70;89.30
5334;DHT22;2689;50.954;7.116;2023-08-24T13:26:53;25.80;90.30
5334;DHT22;2689;50.954;7.116;2023-08-24T13:29:20;25.80;90.70
5334;DHT22;2689;50.954;7.116;2023-08-24T13:31:46;25.80;91.00
5334;DHT22;2689;50.954;7.116;2023-08-24T13:34:13;25.90;91.30
5334;DHT22;2689;50.954;7.116;2023-08-24T13:36:40;25.90;91.20
5334;DHT22;2689;50.954;7.116;2023-08-24T13:39:08;25.80;91.50
5334;DHT22;2689;50.954;7.116;2023-08-24T13:41:36;25.80;91.70
5334;DHT22;2689;50.954;7.116;2023-08-24T13:44:03;25.80;91.50
5334;DHT22;2689;50.954;7.116;2023-08-24T13:46:29;25.90;91.40
5334;DHT22;2689;50.954;7.116;2023-08-24T13:48:56;25.70;91.90
5334;DHT22;2689;50.954;7.116;2023-08-24T13:51:23;25.80;92.30
5334;DHT22;2689;50.954;7.116;2023-08-24T13:53:50;25.80;92.00
5334;DHT22;2689;50.954;7.116;2023-08-24T13:56:18;25.90;92.30
5334;DHT22;2689;50.954;7.116;2023-08-24T13:58:44;25.90;91.40
5334;DHT22;2689;50.954;7.116;2023-08-24T14:01:12;25.90;91.00
5334;DHT22;2689;50.954;7.116;2023-08-24T14:03:38;25.90;91.30
5334;DHT22;2689;50.954;7.116;2023-08-24T14:06:08;25.90;90.80
5334;DHT22;2689;50.954;7.116;2023-08-24T14:08:36;25.90;90.60
5334;DHT22;2689;50.954;7.116;2023-08-24T14:11:02;25.80;90.50
5334;DHT22;2689;50.954;7.116;2023-08-24T14:13:30;25.80;90.70
5334;DHT22;2689;50.954;7.116;2023-08-24T14:15:57;25.80;90.30
5334;DHT22;2689;50.954;7.116;2023-08-24T14:18:24;25.80;90.50
5334;DHT22;2689;50.954;7.116;2023-08-24T14:20:52;25.80;90.70
5334;DHT22;2689;50.954;7.116;2023-08-24T14:23:19;25.90;90.20
5334;DHT22;2689;50.954;7.116;2023-08-24T14:25:46;25.90;90.50
5334;DHT22;2689;50.954;7.116;2023-08-24T14:28:13;25.90;91.00
5334;DHT22;2689;50.954;7.116;2023-08-24T14:30:42;25.80;91.30
5334;DHT22;2689;50.954;7.116;2023-08-24T14:33:08;25.90;91.30
5334;DHT22;2689;50.954;7.116;2023-08-24T14:35:37;25.80;91.70
5334;DHT22;2689;50.954;7.116;2023-08-24T14:38:04;25.70;91.40
5334;DHT22;2689;50.954;7.116;2023-08-24T14:40:31;25.60;91.70
5334;DHT22;2689;50.954;7.116;2023-08-24T14:42:57;25.50;91.90
5334;DHT22;2689;50.954;7.116;2023-08-24T14:45:24;25.50;91.70
5334;DHT22;2689;50.954;7.116;2023-08-24T14:47:52;25.40;91.80
5334;DHT22;2689;50.954;7.116;2023-08-24T14:50:19;25.30;92.40
5334;DHT22;2689;50.954;7.116;2023-08-24T14:52:46;25.20;93.30
5334;DHT22;2689;50.954;7.116;2023-08-24T14:55:13;25.10;93.70
5334;DHT22;2689;50.954;7.116;2023-08-24T14:57:39;25.00;93.90
5334;DHT22;2689;50.954;7.116;2023-08-24T15:00:07;24.90;94.70
5334;DHT22;2689;50.954;7.116;2023-08-24T15:02:35;24.80;95.80
5334;DHT22;2689;50.954;7.116;2023-08-24T15:05:05;24.70;95.90
5334;DHT22;2689;50.954;7.116;2023-08-24T15:07:32;24.50;95.80
5334;DHT22;2689;50.954;7.116;2023-08-24T15:09:58;23.90;99.90
5334;DHT22;2689;50.954;7.116;2023-08-24T15:12:25;23.70;99.90
5334;DHT22;2689;50.954;7.116;2023-08-24T15:14:59;23.70;99.90
5334;DHT22;2689;50.954;7.116;2023-08-24T15:17:29;23.70;99.90
5334;DHT22;2689;50.954;7.116;2023-08-24T15:19:56;23.60;99.90
5334;DHT22;2689;50.954;7.116;2023-08-24T15:22:24;23.40;99.90
5334;DHT22;2689;50.954;7.116;2023-08-24T15:24:54;23.40;99.90
5334;DHT22;2689;50.954;7.116;2023-08-24T15:27:20;23.30;99.90
5334;DHT22;2689;50.954;7.116;2023-08-24T15:29:47;23.20;99.90
5334;DHT22;2689;50.954;7.116;2023-08-24T15:32:14;23.10;99.90
5334;DHT22;2689;50.954;7.116;2023-08-24T15:34:41;23.00;99.90
5334;DHT22;2689;50.954;7.116;2023-08-24T15:37:07;22.90;99.90
5334;DHT22;2689;50.954;7.116;2023-08-24T15:39:38;23.00;99.90
5334;DHT22;2689;50.954;7.116;2023-08-24T15:42:05;22.80;99.90
5334;DHT22;2689;50.954;7.116;2023-08-24T15:44:33;22.70;99.90
5334;DHT22;2689;50.954;7.116;2023-08-24T15:47:00;22.40;99.90
5334;DHT22;2689;50.954;7.116;2023-08-24T15:49:27;22.20;99.90
5334;DHT22;2689;50.954;7.116;2023-08-24T15:51:54;22.10;99.90
5334;DHT22;2689;50.954;7.116;2023-08-24T15:54:20;21.80;99.90
5334;DHT22;2689;50.954;7.116;2023-08-24T15:56:50;21.70;99.90
5334;DHT22;2689;50.954;7.116;2023-08-24T15:59:18;21.50;99.90
5334;DHT22;2689;50.954;7.116;2023-08-24T16:01:46;21.40;99.90
5334;DHT22;2689;50.954;7.116;2023-08-24T16:04:13;21.30;99.90
5334;DHT22;2689;50.954;7.116;2023-08-24T16:06:41;21.30;99.90